Belcher, New York
Current Conditions -  °F | °C
As of 4:53 AM on Tuesday 21 Oct 2014 (Local Time) from KGFL Reporting Station
Overcast Overcast  
Wind Chill: 45°   Ceiling: 9500
Heat Index: 45°   Visibility: 10mi
Dew Point: 42°   Wind: 0mph
Humidity: 90%   Direction: NA
Pressure: 29.92"   Gusts: NA
Location:  43.2004°N, 73.3317°W
Report Text: KGFL 210853Z AUTO 00000KT 10SM FEW070 OVC095 07/06 A2992 RMK AO2 RAE19 SLP133 P0000 60002 T00720056 55003
Loading
Personal Weather Stations






























Interactive Weather Map
Tropical Storm Tracking
New forecast layout! Learn more

10-Day Weather Forecast

Advertisements
Track Severe Weather on mobile